Abel Tasman — PCVM — position and weather

sailwx.info

Track history (hours):
 
Tides and Currents Weather Stations Pressure Air Temp Water Temp Dewpoint Dewpoint Depression Visibility Wind Speed Wind Dir Waves Ship Positions

Abel Tasman (Netherlands)

Last reported at 2017-Jun-26 08:30 UTC. Time now 2017-Jun-26 08:37 UTC.
Position N 54°20' E 010°09'.

Length 38 m.

Type: Sailing vessel. MMSI: 222000333.

Date/timePositionNaut miles runAvg speedWind from/ knotsBaromVisibWave heightAir tempDewpointWater temp
2017-Jun-26 08:30N 54°20' E 010°09'0 0.0
2017-Jun-26 07:56N 54°20' E 010°09'0 0.0
2017-Jun-26 07:30N 54°20' E 010°09'0 0.0
2017-Jun-26 06:51N 54°20' E 010°09'0 0.0
2017-Jun-26 06:21N 54°20' E 010°09'0 0.0
2017-Jun-26 01:06N 54°20' E 010°09'0 0.0
2017-Jun-26 00:48N 54°20' E 010°09'0 0.0
2017-Jun-26 00:27N 54°20' E 010°09'0 0.0
2017-Jun-25 23:54N 54°20' E 010°09'0 0.0
2017-Jun-25 23:30N 54°20' E 010°09'0 0.0
2017-Jun-25 22:42N 54°20' E 010°09'0 0.0
2017-Jun-25 22:30N 54°20' E 010°09'0 0.0
2017-Jun-25 22:00N 54°20' E 010°09'0 0.2
2017-Jun-25 21:30N 54°20' E 010°09'0 0.9
2017-Jun-25 21:00N 54°20' E 010°10'2 3.8
2017-Jun-25 20:29N 54°22' E 010°11'2 4.4
2017-Jun-25 20:00N 54°24' E 010°12'1 1.7
2017-Jun-25 19:30N 54°25' E 010°12'3 5.8
2017-Jun-25 19:00N 54°22' E 010°11'3 5.7
2017-Jun-25 18:30N 54°20' E 010°09'0 0.6
2017-Jun-25 18:00N 54°20' E 010°09'1 1.3
2017-Jun-25 17:30N 54°20' E 010°09'0 0.0
2017-Jun-25 17:00N 54°20' E 010°09'0 0.0
2017-Jun-25 16:30N 54°20' E 010°09'0 0.0
2017-Jun-25 16:00N 54°20' E 010°09'0 0.0
2017-Jun-25 15:30N 54°20' E 010°09'0 0.0
2017-Jun-25 15:00N 54°20' E 010°09'0 0.4
2017-Jun-25 14:00N 54°20' E 010°10'2 3.5
2017-Jun-25 13:30N 54°22' E 010°09'1 1.8
2017-Jun-25 13:00N 54°21' E 010°10'1 2.5
2017-Jun-25 12:30N 54°20' E 010°09'0 0.0
2017-Jun-25 12:00N 54°20' E 010°09'0 0.0
2017-Jun-25 11:30N 54°20' E 010°09'0 0.0
2017-Jun-25 11:00N 54°20' E 010°09'0 0.0
2017-Jun-25 10:30N 54°20' E 010°09'0 0.0
2017-Jun-25 01:15N 54°20' E 010°09'0 0.0
2017-Jun-25 01:00N 54°20' E 010°09'0 0.0
2017-Jun-25 00:30N 54°20' E 010°09'0 0.0
2017-Jun-25 00:00N 54°20' E 010°09'0 0.0
2017-Jun-24 23:30N 54°20' E 010°09'0 0.0
2017-Jun-24 23:00N 54°20' E 010°09'0 0.0
2017-Jun-24 22:30N 54°20' E 010°09'0 0.0
2017-Jun-24 21:59N 54°20' E 010°09'0 0.0
2017-Jun-24 21:30N 54°20' E 010°09'0 0.0
2017-Jun-24 21:00N 54°20' E 010°09'0 0.0
2017-Jun-24 20:30N 54°20' E 010°09'0 0.0
2017-Jun-24 20:00N 54°20' E 010°09'0 0.0
2017-Jun-24 19:30N 54°20' E 010°09'0 0.0
2017-Jun-24 19:00N 54°20' E 010°09'0 0.0
2017-Jun-24 18:30N 54°20' E 010°09'0 0.0
2017-Jun-24 18:00N 54°20' E 010°09'0 0.0
2017-Jun-24 17:30N 54°20' E 010°09'0 0.0
2017-Jun-24 16:58N 54°20' E 010°09'0 0.0
2017-Jun-24 16:30N 54°20' E 010°09'0 0.0
2017-Jun-24 16:00N 54°20' E 010°09'0 0.0
2017-Jun-24 15:30N 54°20' E 010°09'0 0.0
2017-Jun-24 15:00N 54°20' E 010°09'0 0.0
2017-Jun-24 14:00N 54°20' E 010°09'1 2.7
2017-Jun-24 13:30N 54°21' E 010°10'3 5.9
2017-Jun-24 13:00N 54°24' E 010°12'  
2017-Jun-22 03:44N 54°20' E 010°09'0 0.0
2017-Jun-22 03:14N 54°20' E 010°09'0 0.0
2017-Jun-21 12:11N 54°20' E 010°09'0 0.0
2017-Jun-21 11:56N 54°20' E 010°09'0 0.0
2017-Jun-21 11:17N 54°20' E 010°09'0 0.0
2017-Jun-21 10:56N 54°20' E 010°09'0 0.0
2017-Jun-21 10:23N 54°20' E 010°09'0 0.0
2017-Jun-21 09:56N 54°20' E 010°09'0 0.0
2017-Jun-21 09:26N 54°20' E 010°09'0 0.0
2017-Jun-21 08:56N 54°20' E 010°09'0 0.0
2017-Jun-21 08:26N 54°20' E 010°09'0 0.0
2017-Jun-21 07:50N 54°20' E 010°09'0 0.0
2017-Jun-21 07:20N 54°20' E 010°09'0 0.0
2017-Jun-21 06:20N 54°20' E 010°09'0 0.0
2017-Jun-21 05:59N 54°20' E 010°09'0 0.0
2017-Jun-21 05:29N 54°20' E 010°09'0 0.0
2017-Jun-21 04:50N 54°20' E 010°09'0 0.0
2017-Jun-21 04:14N 54°20' E 010°09'0 0.0
2017-Jun-21 03:56N 54°20' E 010°09'0 0.0
2017-Jun-21 03:17N 54°20' E 010°09'0 0.0
2017-Jun-21 02:50N 54°20' E 010°09'0 0.0
2017-Jun-21 02:20N 54°20' E 010°09'0 0.0
2017-Jun-21 01:50N 54°20' E 010°09'0 0.0
2017-Jun-21 01:29N 54°20' E 010°09'0 0.0
2017-Jun-21 00:38N 54°20' E 010°09'0 0.0
2017-Jun-21 00:26N 54°20' E 010°09'0 0.0
2017-Jun-20 23:56N 54°20' E 010°09'0 0.0
2017-Jun-20 23:26N 54°20' E 010°09'0 0.0
2017-Jun-20 22:53N 54°20' E 010°09'0 0.0
2017-Jun-20 22:26N 54°20' E 010°09'0 0.0
2017-Jun-20 21:50N 54°20' E 010°09'0 0.0
2017-Jun-20 21:23N 54°20' E 010°09'0 0.0
2017-Jun-20 20:59N 54°20' E 010°09'0 0.0
2017-Jun-20 20:26N 54°20' E 010°09'0 0.0
2017-Jun-20 19:38N 54°20' E 010°09'0 0.0
2017-Jun-20 19:20N 54°20' E 010°09'0 0.0
2017-Jun-20 18:59N 54°20' E 010°09'0 0.0
2017-Jun-20 17:32N 54°20' E 010°09'0 0.1
2017-Jun-20 17:26N 54°20' E 010°09'0 0.0
2017-Jun-20 16:53N 54°20' E 010°09'  
Track history (hours):
 
Tides and Currents Weather Stations Pressure Air Temp Water Temp Dewpoint Dewpoint Depression Visibility Wind Speed Wind Dir Waves Ship Positions

Abel Tasman (Netherlands)

Last reported at 2017-Jun-26 08:30 UTC. Time now 2017-Jun-26 08:37 UTC.
Position N 54°20' E 010°09'.

Length 38 m.

Type: Sailing vessel. MMSI: 222000333.

Date/timePositionNaut miles runAvg speedWind from/ knotsBaromVisibWave heightAir tempDewpointWater temp
2017-Jun-26 08:30N 54°20' E 010°09'0 0.0
2017-Jun-26 07:56N 54°20' E 010°09'0 0.0
2017-Jun-26 07:30N 54°20' E 010°09'0 0.0
2017-Jun-26 06:51N 54°20' E 010°09'0 0.0
2017-Jun-26 06:21N 54°20' E 010°09'0 0.0
2017-Jun-26 01:06N 54°20' E 010°09'0 0.0
2017-Jun-26 00:48N 54°20' E 010°09'0 0.0
2017-Jun-26 00:27N 54°20' E 010°09'0 0.0
2017-Jun-25 23:54N 54°20' E 010°09'0 0.0
2017-Jun-25 23:30N 54°20' E 010°09'0 0.0
2017-Jun-25 22:42N 54°20' E 010°09'0 0.0
2017-Jun-25 22:30N 54°20' E 010°09'0 0.0
2017-Jun-25 22:00N 54°20' E 010°09'0 0.2
2017-Jun-25 21:30N 54°20' E 010°09'0 0.9
2017-Jun-25 21:00N 54°20' E 010°10'2 3.8
2017-Jun-25 20:29N 54°22' E 010°11'2 4.4
2017-Jun-25 20:00N 54°24' E 010°12'1 1.7
2017-Jun-25 19:30N 54°25' E 010°12'3 5.8
2017-Jun-25 19:00N 54°22' E 010°11'3 5.7
2017-Jun-25 18:30N 54°20' E 010°09'0 0.6
2017-Jun-25 18:00N 54°20' E 010°09'1 1.3
2017-Jun-25 17:30N 54°20' E 010°09'0 0.0
2017-Jun-25 17:00N 54°20' E 010°09'0 0.0
2017-Jun-25 16:30N 54°20' E 010°09'0 0.0
2017-Jun-25 16:00N 54°20' E 010°09'0 0.0
2017-Jun-25 15:30N 54°20' E 010°09'0 0.0
2017-Jun-25 15:00N 54°20' E 010°09'0 0.4
2017-Jun-25 14:00N 54°20' E 010°10'2 3.5
2017-Jun-25 13:30N 54°22' E 010°09'1 1.8
2017-Jun-25 13:00N 54°21' E 010°10'1 2.5
2017-Jun-25 12:30N 54°20' E 010°09'0 0.0
2017-Jun-25 12:00N 54°20' E 010°09'0 0.0
2017-Jun-25 11:30N 54°20' E 010°09'0 0.0
2017-Jun-25 11:00N 54°20' E 010°09'0 0.0
2017-Jun-25 10:30N 54°20' E 010°09'0 0.0
2017-Jun-25 01:15N 54°20' E 010°09'0 0.0
2017-Jun-25 01:00N 54°20' E 010°09'0 0.0
2017-Jun-25 00:30N 54°20' E 010°09'0 0.0
2017-Jun-25 00:00N 54°20' E 010°09'0 0.0
2017-Jun-24 23:30N 54°20' E 010°09'0 0.0
2017-Jun-24 23:00N 54°20' E 010°09'0 0.0
2017-Jun-24 22:30N 54°20' E 010°09'0 0.0
2017-Jun-24 21:59N 54°20' E 010°09'0 0.0
2017-Jun-24 21:30N 54°20' E 010°09'0 0.0
2017-Jun-24 21:00N 54°20' E 010°09'0 0.0
2017-Jun-24 20:30N 54°20' E 010°09'0 0.0
2017-Jun-24 20:00N 54°20' E 010°09'0 0.0
2017-Jun-24 19:30N 54°20' E 010°09'0 0.0
2017-Jun-24 19:00N 54°20' E 010°09'0 0.0
2017-Jun-24 18:30N 54°20' E 010°09'0 0.0
2017-Jun-24 18:00N 54°20' E 010°09'0 0.0
2017-Jun-24 17:30N 54°20' E 010°09'0 0.0
2017-Jun-24 16:58N 54°20' E 010°09'0 0.0
2017-Jun-24 16:30N 54°20' E 010°09'0 0.0
2017-Jun-24 16:00N 54°20' E 010°09'0 0.0
2017-Jun-24 15:30N 54°20' E 010°09'0 0.0
2017-Jun-24 15:00N 54°20' E 010°09'0 0.0
2017-Jun-24 14:00N 54°20' E 010°09'1 2.7
2017-Jun-24 13:30N 54°21' E 010°10'3 5.9
2017-Jun-24 13:00N 54°24' E 010°12'  
2017-Jun-22 03:44N 54°20' E 010°09'0 0.0
2017-Jun-22 03:14N 54°20' E 010°09'0 0.0
2017-Jun-21 12:11N 54°20' E 010°09'0 0.0
2017-Jun-21 11:56N 54°20' E 010°09'0 0.0
2017-Jun-21 11:17N 54°20' E 010°09'0 0.0
2017-Jun-21 10:56N 54°20' E 010°09'0 0.0
2017-Jun-21 10:23N 54°20' E 010°09'0 0.0
2017-Jun-21 09:56N 54°20' E 010°09'0 0.0
2017-Jun-21 09:26N 54°20' E 010°09'0 0.0
2017-Jun-21 08:56N 54°20' E 010°09'0 0.0
2017-Jun-21 08:26N 54°20' E 010°09'0 0.0
2017-Jun-21 07:50N 54°20' E 010°09'0 0.0
2017-Jun-21 07:20N 54°20' E 010°09'0 0.0
2017-Jun-21 06:20N 54°20' E 010°09'0 0.0
2017-Jun-21 05:59N 54°20' E 010°09'0 0.0
2017-Jun-21 05:29N 54°20' E 010°09'0 0.0
2017-Jun-21 04:50N 54°20' E 010°09'0 0.0
2017-Jun-21 04:14N 54°20' E 010°09'0 0.0
2017-Jun-21 03:56N 54°20' E 010°09'0 0.0
2017-Jun-21 03:17N 54°20' E 010°09'0 0.0
2017-Jun-21 02:50N 54°20' E 010°09'0 0.0
2017-Jun-21 02:20N 54°20' E 010°09'0 0.0
2017-Jun-21 01:50N 54°20' E 010°09'0 0.0
2017-Jun-21 01:29N 54°20' E 010°09'0 0.0
2017-Jun-21 00:38N 54°20' E 010°09'0 0.0
2017-Jun-21 00:26N 54°20' E 010°09'0 0.0
2017-Jun-20 23:56N 54°20' E 010°09'0 0.0
2017-Jun-20 23:26N 54°20' E 010°09'0 0.0
2017-Jun-20 22:53N 54°20' E 010°09'0 0.0
2017-Jun-20 22:26N 54°20' E 010°09'0 0.0
2017-Jun-20 21:50N 54°20' E 010°09'0 0.0
2017-Jun-20 21:23N 54°20' E 010°09'0 0.0
2017-Jun-20 20:59N 54°20' E 010°09'0 0.0
2017-Jun-20 20:26N 54°20' E 010°09'0 0.0
2017-Jun-20 19:38N 54°20' E 010°09'0 0.0
2017-Jun-20 19:20N 54°20' E 010°09'0 0.0
2017-Jun-20 18:59N 54°20' E 010°09'0 0.0
2017-Jun-20 17:32N 54°20' E 010°09'0 0.1
2017-Jun-20 17:26N 54°20' E 010°09'0 0.0
2017-Jun-20 16:53N 54°20' E 010°09'  

Dump ship's entire track history